Time;durP1;ratioP1;P1;durP2;ratioP2;P2;SDS_P1;SDS_P2;PMS_P1;PMS_P2;Temp;Humidity;BMP_temperature;BMP_pressure;BME280_temperature;BME280_humidity;BME280_pressure;Samples;Min_cycle;Max_cycle;Signal;HPM_P1;HPM_P2
2022/12/22 03:26:54;;;;;;;;;;;;;;;;;;5040967;28;19925;-80
2022/12/22 03:29:20;;;;;;;;;;;;;;;;;;5039392;28;19929;-79
2022/12/22 03:31:46;;;;;;;;;;;;;;;;;;5037396;28;19925;-79
2022/12/22 03:34:11;;;;;;;;;;;;;;;;;;5048706;28;19933;-79
2022/12/22 03:36:37;;;;;;;;;;;;;;;;;;5045515;28;19932;-79
2022/12/22 03:39:03;;;;;;;;;;;;;;;;;;5042136;28;19932;-79
2022/12/22 03:47:00;;;;;;;;;;;;;;;;;;5034115;28;21391;-79
2022/12/22 03:49:26;;;;;;;;;;;;;;;;;;5043816;28;19968;-80
2022/12/22 03:51:52;;;;;;;;;;;;;;;;;;5042036;28;19932;-79
2022/12/22 03:54:18;;;;;;;;;;;;;;;;;;5043132;28;19925;-79
2022/12/22 03:56:44;;;;;;;;;;;;;;;;;;5041195;28;19933;-79
2022/12/22 03:59:10;;;;;;;;;;;;;;;;;;5045541;28;19936;-79
2022/12/22 04:01:35;;;;;;;;;;;;;;;;;;5040465;28;20334;-79
2022/12/22 04:04:01;;;;;;;;;;;;;;;;;;5037297;28;19948;-80
2022/12/22 04:06:27;;;;;;;;;;;;;;;;;;5045875;28;19926;-79
2022/12/22 04:08:53;;;;;;;;;;;;;;;;;;5041031;28;19921;-80
2022/12/22 04:14:04;;;;;;;;;;;;;;;;;;5038261;28;20003;-81
2022/12/22 04:16:30;;;;;;;;;;;;;;;;;;5038915;28;19975;-81
2022/12/22 04:18:56;;;;;;;;;;;;;;;;;;5039022;28;19932;-81
2022/12/22 04:21:22;;;;;;;;;;;;;;;;;;5039979;28;20284;-81
2022/12/22 04:23:50;;;;;;;;;;;;;;;;;;5038775;28;19925;-79
2022/12/22 04:26:16;;;;;;;;;;;;;;;;;;5038173;28;19973;-80
2022/12/22 04:28:41;;;;;;;;;;;;;;;;;;5041607;28;19968;-80
2022/12/22 04:31:07;;;;;;;;;;;;;;;;;;5042176;28;19945;-80
2022/12/22 04:33:33;;;;;;;;;;;;;;;;;;5038708;28;19925;-80
2022/12/22 04:35:59;;;;;;;;;;;;;;;;;;5044342;28;20122;-79
2022/12/22 04:38:25;;;;;;;;;;;;;;;;;;5045205;28;19933;-80
2022/12/22 04:40:51;;;;;;;;;;;;;;;;;;5046549;28;19979;-79
2022/12/22 04:43:17;;;;;;;;;;;;;;;;;;5054077;28;20004;-80
2022/12/22 04:45:43;;;;;;;;;;;;;;;;;;5053609;28;20379;-79
2022/12/22 04:48:09;;;;;;;;;;;;;;;;;;5043194;28;19926;-80
2022/12/22 04:50:34;;;;;;;;;;;;;;;;;;5050100;28;19988;-80
2022/12/22 04:53:00;;;;;;;;;;;;;;;;;;5041717;28;19980;-80
2022/12/22 04:55:26;;;;;;;;;;;;;;;;;;5043189;28;19925;-80
2022/12/22 04:57:52;;;;;;;;;;;;;;;;;;5043856;28;19925;-80
2022/12/22 05:00:18;;;;;;;;;;;;;;;;;;5043460;28;19925;-80
2022/12/22 05:02:44;;;;;;;;;;;;;;;;;;5042536;28;20319;-80
2022/12/22 05:05:10;;;;;;;;;;;;;;;;;;5046337;28;19932;-80
2022/12/22 05:07:36;;;;;;;;;;;;;;;;;;5045232;28;19940;-79
2022/12/22 05:10:02;;;;;;;;;;;;;;;;;;5041255;28;19932;-79
2022/12/22 05:15:12;;;;;;;;;;;;;;;;;;5041536;28;20016;-80
2022/12/22 05:17:38;;;;;;;;;;;;;;;;;;5041426;28;19975;-80
2022/12/22 05:20:04;;;;;;;;;;;;;;;;;;5053346;28;19929;-80
2022/12/22 05:22:30;;;;;;;;;;;;;;;;;;5050079;28;19936;-79
2022/12/22 05:24:57;;;;;;;;;;;;;;;;;;5038406;28;19925;-79
2022/12/22 05:27:24;;;;;;;;;;;;;;;;;;5044542;28;19925;-79
2022/12/22 05:29:50;;;;;;;;;;;;;;;;;;5039923;28;19929;-79
2022/12/22 05:32:16;;;;;;;;;;;;;;;;;;5055979;28;20011;-79
2022/12/22 05:34:42;;;;;;;;;;;;;;;;;;5047930;28;20016;-79
2022/12/22 05:37:08;;;;;;;;;;;;;;;;;;5042877;28;19957;-80
2022/12/22 05:39:33;;;;;;;;;;;;;;;;;;5050127;28;19989;-80
2022/12/22 05:41:59;;;;;;;;;;;;;;;;;;5049639;28;19933;-79
2022/12/22 05:44:25;;;;;;;;;;;;;;;;;;5050172;28;19986;-80
2022/12/22 05:46:51;;;;;;;;;;;;;;;;;;5038332;28;19951;-81
2022/12/22 05:49:17;;;;;;;;;;;;;;;;;;5042831;28;20330;-77
2022/12/22 05:51:43;;;;;;;;;;;;;;;;;;5052308;28;20429;-79
2022/12/22 05:54:09;;;;;;;;;;;;;;;;;;5048180;28;19932;-80
2022/12/22 05:56:35;;;;;;;;;;;;;;;;;;5049438;28;19936;-79
2022/12/22 05:59:01;;;;;;;;;;;;;;;;;;5040331;28;19925;-80
2022/12/22 06:01:27;;;;;;;;;;;;;;;;;;5054071;28;19947;-80
2022/12/22 06:03:53;;;;;;;;;;;;;;;;;;5056579;28;19988;-80
2022/12/22 06:06:19;;;;;;;;;;;;;;;;;;5043833;28;19930;-79
2022/12/22 06:08:44;;;;;;;;;;;;;;;;;;5039277;28;19933;-79
2022/12/22 06:11:10;;;;;;;;;;;;;;;;;;5047295;28;19947;-80
2022/12/22 06:13:36;;;;;;;;;;;;;;;;;;5045896;28;19929;-80
2022/12/22 06:16:02;;;;;;;;;;;;;;;;;;5047984;28;19932;-79
2022/12/22 06:18:28;;;;;;;;;;;;;;;;;;5055743;28;19929;-79
2022/12/22 06:20:54;;;;;;;;;;;;;;;;;;5045411;28;19932;-79
2022/12/22 06:23:20;;;;;;;;;;;;;;;;;;5045357;28;19992;-80
2022/12/22 06:25:46;;;;;;;;;;;;;;;;;;5046889;28;19975;-80
2022/12/22 06:28:12;;;;;;;;;;;;;;;;;;5034679;28;19933;-80
2022/12/22 06:30:38;;;;;;;;;;;;;;;;;;5033762;28;20294;-80
2022/12/22 06:33:04;;;;;;;;;;;;;;;;;;5043233;28;19925;-79
2022/12/22 06:35:30;;;;;;;;;;;;;;;;;;5053025;28;20460;-79
2022/12/22 06:37:55;;;;;;;;;;;;;;;;;;5052989;28;19925;-79
2022/12/22 06:40:21;;;;;;;;;;;;;;;;;;5046834;28;19925;-79
2022/12/22 06:45:32;;;;;;;;;;;;;;;;;;5031973;28;19937;-80
2022/12/22 06:47:58;;;;;;;;;;;;;;;;;;5039526;28;20319;-79
2022/12/22 06:50:24;;;;;;;;;;;;;;;;;;5040668;28;20037;-79
2022/12/22 06:52:50;;;;;;;;;;;;;;;;;;5039426;28;19996;-80
2022/12/22 06:55:16;;;;;;;;;;;;;;;;;;5039938;28;19928;-80
2022/12/22 06:57:41;;;;;;;;;;;;;;;;;;5035587;28;19929;-80
2022/12/22 07:00:07;;;;;;;;;;;;;;;;;;5029499;28;19925;-80
2022/12/22 07:02:33;;;;;;;;;;;;;;;;;;5033118;28;19929;-80
2022/12/22 07:04:59;;;;;;;;;;;;;;;;;;5026856;28;19925;-80
2022/12/22 07:07:25;;;;;;;;;;;;;;;;;;5040167;28;19929;-80
2022/12/22 07:09:51;;;;;;;;;;;;;;;;;;5041918;28;19925;-79
2022/12/22 07:12:17;;;;;;;;;;;;;;;;;;5045130;28;19933;-79
2022/12/22 07:14:43;;;;;;;;;;;;;;;;;;5046260;28;19933;-80
2022/12/22 07:17:09;;;;;;;;;;;;;;;;;;5046763;28;19952;-79
2022/12/22 07:19:35;;;;;;;;;;;;;;;;;;5053155;28;19925;-79
2022/12/22 07:22:01;;;;;;;;;;;;;;;;;;5045105;28;19925;-79
2022/12/22 07:24:28;;;;;;;;;;;;;;;;;;5041596;28;20287;-79
2022/12/22 07:26:54;;;;;;;;;;;;;;;;;;5040079;28;19979;-79
2022/12/22 07:29:20;;;;;;;;;;;;;;;;;;5039901;28;20009;-80
2022/12/22 07:31:45;;;;;;;;;;;;;;;;;;5040740;28;20290;-79
2022/12/22 07:34:11;;;;;;;;;;;;;;;;;;5043558;28;20001;-80
2022/12/22 07:36:37;;;;;;;;;;;;;;;;;;5047632;28;19933;-79
2022/12/22 07:39:03;;;;;;;;;;;;;;;;;;5038539;28;19961;-79
2022/12/22 07:44:34;;;;;;;;;;;;;;;;;;5005421;28;19926;-81
2022/12/22 07:47:00;;;;;;;;;;;;;;;;;;5000340;28;19944;-79
2022/12/22 07:52:10;;;;;;;;;;;;;;;;;;5038606;28;19933;-78
2022/12/22 07:54:36;;;;;;;;;;;;;;;;;;5034174;28;20437;-79
2022/12/22 07:57:02;;;;;;;;;;;;;;;;;;5030824;28;19998;-79
2022/12/22 07:59:28;;;;;;;;;;;;;;;;;;5028169;28;19936;-78
2022/12/22 08:01:54;;;;;;;;;;;;;;;;;;5024977;28;19979;-78
2022/12/22 08:04:21;;;;;;;;;;;;;;;;;;5021327;28;20505;-79
2022/12/22 08:06:47;;;;;;;;;;;;;;;;;;5032743;28;19925;-79
2022/12/22 08:09:13;;;;;;;;;;;;;;;;;;5030069;28;19932;-79
2022/12/22 08:11:38;;;;;;;;;;;;;;;;;;5030531;28;19932;-79
2022/12/22 08:14:04;;;;;;;;;;;;;;;;;;5040964;28;19929;-79
2022/12/22 08:16:30;;;;;;;;;;;;;;;;;;5046456;28;19929;-78
2022/12/22 08:18:56;;;;;;;;;;;;;;;;;;5041115;28;19921;-79
2022/12/22 08:21:22;;;;;;;;;;;;;;;;;;5039701;28;20027;-80
2022/12/22 08:23:48;;;;;;;;;;;;;;;;;;5042143;28;19983;-79
2022/12/22 08:26:14;;;;;;;;;;;;;;;;;;5040779;28;19925;-78
2022/12/22 08:28:40;;;;;;;;;;;;;;;;;;5036585;28;19952;-79
2022/12/22 08:31:06;;;;;;;;;;;;;;;;;;5036813;28;19926;-78
2022/12/22 08:33:32;;;;;;;;;;;;;;;;;;5037572;28;19929;-79
2022/12/22 08:35:58;;;;;;;;;;;;;;;;;;5034127;28;19931;-78
2022/12/22 08:38:23;;;;;;;;;;;;;;;;;;5033830;28;19925;-79
2022/12/22 08:40:49;;;;;;;;;;;;;;;;;;5037162;28;19983;-79
2022/12/22 08:43:15;;;;;;;;;;;;;;;;;;5034251;28;19925;-79
2022/12/22 08:45:41;;;;;;;;;;;;;;;;;;5035481;28;19925;-79
2022/12/22 08:48:07;;;;;;;;;;;;;;;;;;5035473;28;19925;-79
2022/12/22 08:50:33;;;;;;;;;;;;;;;;;;5026472;28;19948;-79
2022/12/22 08:52:59;;;;;;;;;;;;;;;;;;5018526;28;20289;-79
2022/12/22 08:55:25;;;;;;;;;;;;;;;;;;5029275;28;20395;-79
2022/12/22 08:57:51;;;;;;;;;;;;;;;;;;5024971;28;20012;-80
2022/12/22 09:00:17;;;;;;;;;;;;;;;;;;5017612;28;19925;-79
2022/12/22 09:02:43;;;;;;;;;;;;;;;;;;5033179;28;20267;-79
2022/12/22 09:05:08;;;;;;;;;;;;;;;;;;5014734;28;19989;-79
2022/12/22 09:07:34;;;;;;;;;;;;;;;;;;5018957;28;19925;-79
2022/12/22 09:10:00;;;;;;;;;;;;;;;;;;5035830;28;19929;-78
2022/12/22 09:12:26;;;;;;;;;;;;;;;;;;5036032;28;19925;-79
2022/12/22 09:14:52;;;;;;;;;;;;;;;;;;5035480;28;19976;-77
2022/12/22 09:17:18;;;;;;;;;;;;;;;;;;5036079;28;19926;-78
2022/12/22 09:19:44;;;;;;;;;;;;;;;;;;5035188;28;19925;-78
2022/12/22 09:22:10;;;;;;;;;;;;;;;;;;5037071;28;20071;-79
2022/12/22 09:24:36;;;;;;;;;;;;;;;;;;5033447;28;19948;-78
2022/12/22 09:27:02;;;;;;;;;;;;;;;;;;5036740;28;20007;-78
2022/12/22 09:29:28;;;;;;;;;;;;;;;;;;5041457;28;20325;-79
2022/12/22 09:31:54;;;;;;;;;;;;;;;;;;5044801;28;19925;-79
2022/12/22 09:34:20;;;;;;;;;;;;;;;;;;5045007;28;19932;-79
2022/12/22 09:36:46;;;;;;;;;;;;;;;;;;5047190;28;19934;-78
2022/12/22 09:39:12;;;;;;;;;;;;;;;;;;5039365;28;19979;-79
2022/12/22 09:41:37;;;;;;;;;;;;;;;;;;5036401;28;19925;-79
2022/12/22 09:44:03;;;;;;;;;;;;;;;;;;5035764;28;19925;-79
2022/12/22 09:46:29;;;;;;;;;;;;;;;;;;5034958;28;20395;-78
2022/12/22 09:48:55;;;;;;;;;;;;;;;;;;5039930;28;19925;-78
2022/12/22 09:51:21;;;;;;;;;;;;;;;;;;5044576;28;19924;-78
2022/12/22 09:53:47;;;;;;;;;;;;;;;;;;5033860;28;19953;-77
2022/12/22 09:56:13;;;;;;;;;;;;;;;;;;5030866;28;19926;-77
2022/12/22 09:58:39;;;;;;;;;;;;;;;;;;5032188;28;19925;-77
2022/12/22 10:01:05;;;;;;;;;;;;;;;;;;5034783;28;20272;-77
2022/12/22 10:03:31;;;;;;;;;;;;;;;;;;5036578;28;19931;-77
2022/12/22 10:05:57;;;;;;;;;;;;;;;;;;5040431;28;20286;-77
2022/12/22 10:08:23;;;;;;;;;;;;;;;;;;5040364;28;19925;-77
2022/12/22 10:10:49;;;;;;;;;;;;;;;;;;5038176;28;19947;-77
2022/12/22 10:13:15;;;;;;;;;;;;;;;;;;5041345;28;19925;-77
2022/12/22 10:15:40;;;;;;;;;;;;;;;;;;5046799;28;20019;-77
2022/12/22 10:18:07;;;;;;;;;;;;;;;;;;5034294;28;19933;-77
2022/12/22 10:20:33;;;;;;;;;;;;;;;;;;5043189;28;19925;-77
2022/12/22 10:22:59;;;;;;;;;;;;;;;;;;5030732;28;19987;-76
2022/12/22 10:25:25;;;;;;;;;;;;;;;;;;5039599;28;19968;-76
2022/12/22 10:27:51;;;;;;;;;;;;;;;;;;5033665;28;19925;-76
2022/12/22 10:30:17;;;;;;;;;;;;;;;;;;5046872;28;19961;-76
2022/12/22 10:32:43;;;;;;;;;;;;;;;;;;5034848;28;20023;-76
2022/12/22 10:35:09;;;;;;;;;;;;;;;;;;5054224;28;19932;-77
2022/12/22 10:37:35;;;;;;;;;;;;;;;;;;5052435;28;19925;-77
2022/12/22 10:40:01;;;;;;;;;;;;;;;;;;5042736;28;19928;-76
2022/12/22 10:42:26;;;;;;;;;;;;;;;;;;5034606;28;20402;-76
2022/12/22 10:44:52;;;;;;;;;;;;;;;;;;5034656;28;19937;-77
2022/12/22 10:47:19;;;;;;;;;;;;;;;;;;5032653;28;19925;-77
2022/12/22 10:49:45;;;;;;;;;;;;;;;;;;5029425;28;20367;-77
2022/12/22 10:52:11;;;;;;;;;;;;;;;;;;5033740;28;19925;-77
2022/12/22 10:54:37;;;;;;;;;;;;;;;;;;5028122;28;19929;-77
2022/12/22 10:57:02;;;;;;;;;;;;;;;;;;5033179;28;19925;-77
2022/12/22 10:59:28;;;;;;;;;;;;;;;;;;5028775;28;20016;-76
2022/12/22 11:01:54;;;;;;;;;;;;;;;;;;5042105;28;19967;-77
2022/12/22 11:04:20;;;;;;;;;;;;;;;;;;5036577;28;19933;-77
2022/12/22 11:06:46;;;;;;;;;;;;;;;;;;5038913;28;19929;-77
2022/12/22 11:09:12;;;;;;;;;;;;;;;;;;5032908;28;20271;-76
2022/12/22 11:11:38;;;;;;;;;;;;;;;;;;5030078;28;19925;-77
2022/12/22 11:14:04;;;;;;;;;;;;;;;;;;5029362;28;19933;-77
2022/12/22 11:16:30;;;;;;;;;;;;;;;;;;5026632;28;19925;-77
2022/12/22 11:18:56;;;;;;;;;;;;;;;;;;5034580;28;20031;-78
2022/12/22 11:21:22;;;;;;;;;;;;;;;;;;5021431;28;19925;-78
2022/12/22 11:23:48;;;;;;;;;;;;;;;;;;5034233;28;19925;-77
2022/12/22 11:26:13;;;;;;;;;;;;;;;;;;5032932;28;20386;-77
2022/12/22 11:28:39;;;;;;;;;;;;;;;;;;5034414;28;19925;-78
2022/12/22 11:31:05;;;;;;;;;;;;;;;;;;5034088;28;20362;-77
2022/12/22 11:33:31;;;;;;;;;;;;;;;;;;5033844;28;20325;-77
2022/12/22 11:35:57;;;;;;;;;;;;;;;;;;5034543;28;19925;-77
2022/12/22 11:38:23;;;;;;;;;;;;;;;;;;5034705;28;19925;-77
2022/12/22 11:40:49;;;;;;;;;;;;;;;;;;5033798;28;19971;-77
2022/12/22 11:43:15;;;;;;;;;;;;;;;;;;5032549;28;19925;-77
2022/12/22 11:45:41;;;;;;;;;;;;;;;;;;5015826;28;20004;-77
2022/12/22 11:48:07;;;;;;;;;;;;;;;;;;5034056;28;19932;-77
2022/12/22 11:50:33;;;;;;;;;;;;;;;;;;5033986;28;20314;-77
2022/12/22 11:52:59;;;;;;;;;;;;;;;;;;5018664;28;19933;-77
2022/12/22 11:55:25;;;;;;;;;;;;;;;;;;5017320;28;19940;-77
2022/12/22 11:57:50;;;;;;;;;;;;;;;;;;5033878;28;19972;-77
2022/12/22 12:00:17;;;;;;;;;;;;;;;;;;5019059;28;19979;-77
2022/12/22 12:02:42;;;;;;;;;;;;;;;;;;5033677;28;19925;-77
2022/12/22 12:05:08;;;;;;;;;;;;;;;;;;5032347;28;19933;-77
2022/12/22 12:07:34;;;;;;;;;;;;;;;;;;5033418;28;19932;-77
2022/12/22 12:10:00;;;;;;;;;;;;;;;;;;5014353;28;19952;-77
2022/12/22 12:12:26;;;;;;;;;;;;;;;;;;5020815;28;20323;-77
2022/12/22 12:14:52;;;;;;;;;;;;;;;;;;5028248;28;20004;-77
2022/12/22 12:17:18;;;;;;;;;;;;;;;;;;5027387;28;19932;-77
2022/12/22 12:19:44;;;;;;;;;;;;;;;;;;5034543;28;20263;-77
2022/12/22 12:22:10;;;;;;;;;;;;;;;;;;5035978;28;19929;-79
2022/12/22 12:24:37;;;;;;;;;;;;;;;;;;5036913;28;20295;-78
2022/12/22 12:27:02;;;;;;;;;;;;;;;;;;5028627;28;19925;-78
2022/12/22 12:29:28;;;;;;;;;;;;;;;;;;5018982;28;19935;-78
2022/12/22 12:31:54;;;;;;;;;;;;;;;;;;5015672;28;19975;-79
2022/12/22 12:34:20;;;;;;;;;;;;;;;;;;5031743;28;19929;-77
2022/12/22 12:36:46;;;;;;;;;;;;;;;;;;5033479;28;19932;-77
2022/12/22 12:39:12;;;;;;;;;;;;;;;;;;5032598;28;20303;-78
2022/12/22 12:41:38;;;;;;;;;;;;;;;;;;5031985;28;19972;-77
2022/12/22 12:44:04;;;;;;;;;;;;;;;;;;5033929;28;19983;-78
2022/12/22 12:46:30;;;;;;;;;;;;;;;;;;5032288;28;20032;-78
2022/12/22 12:48:56;;;;;;;;;;;;;;;;;;5033378;28;19976;-78
2022/12/22 12:51:22;;;;;;;;;;;;;;;;;;5031543;28;20011;-79
2022/12/22 12:53:47;;;;;;;;;;;;;;;;;;5037424;28;19926;-77
2022/12/22 12:56:13;;;;;;;;;;;;;;;;;;5035356;28;20307;-77
2022/12/22 12:58:41;;;;;;;;;;;;;;;;;;5035004;28;19932;-78
2022/12/22 13:01:07;;;;;;;;;;;;;;;;;;5035893;28;19929;-77
2022/12/22 13:03:33;;;;;;;;;;;;;;;;;;5036651;28;20066;-77
2022/12/22 13:05:59;;;;;;;;;;;;;;;;;;5036776;28;19925;-78
2022/12/22 13:08:25;;;;;;;;;;;;;;;;;;5035386;28;19948;-77
2022/12/22 13:10:51;;;;;;;;;;;;;;;;;;5036823;28;20268;-78
2022/12/22 13:13:17;;;;;;;;;;;;;;;;;;5037741;28;19940;-77
2022/12/22 13:15:43;;;;;;;;;;;;;;;;;;5019499;28;19933;-78
2022/12/22 13:18:09;;;;;;;;;;;;;;;;;;5026663;28;19979;-77
2022/12/22 13:20:35;;;;;;;;;;;;;;;;;;5035445;28;19968;-78
2022/12/22 13:23:01;;;;;;;;;;;;;;;;;;5036695;28;20039;-77
2022/12/22 13:25:27;;;;;;;;;;;;;;;;;;5036625;28;19939;-77
2022/12/22 13:27:53;;;;;;;;;;;;;;;;;;5036678;28;20326;-77
2022/12/22 13:30:19;;;;;;;;;;;;;;;;;;5035854;28;19925;-78
2022/12/22 13:32:45;;;;;;;;;;;;;;;;;;5037177;28;20288;-78
2022/12/22 13:35:11;;;;;;;;;;;;;;;;;;5036436;28;19948;-78
2022/12/22 13:37:37;;;;;;;;;;;;;;;;;;5029430;28;19926;-77
2022/12/22 13:40:03;;;;;;;;;;;;;;;;;;5035843;28;19925;-77
2022/12/22 13:42:28;;;;;;;;;;;;;;;;;;5035578;28;20302;-77
2022/12/22 13:44:54;;;;;;;;;;;;;;;;;;5030352;28;19929;-77
2022/12/22 13:47:20;;;;;;;;;;;;;;;;;;5033858;28;19929;-77
2022/12/22 13:49:46;;;;;;;;;;;;;;;;;;5035933;28;19929;-78
2022/12/22 13:52:12;;;;;;;;;;;;;;;;;;5036405;28;19924;-77
2022/12/22 13:54:39;;;;;;;;;;;;;;;;;;5036393;28;19935;-77
2022/12/22 13:57:05;;;;;;;;;;;;;;;;;;5036654;28;19936;-77
2022/12/22 13:59:30;;;;;;;;;;;;;;;;;;5035860;28;19929;-77
2022/12/22 14:01:56;;;;;;;;;;;;;;;;;;5033191;28;20272;-77
2022/12/22 14:04:22;;;;;;;;;;;;;;;;;;5030819;28;19948;-78
2022/12/22 14:06:48;;;;;;;;;;;;;;;;;;5036280;28;19952;-78
2022/12/22 14:09:14;;;;;;;;;;;;;;;;;;5039243;28;19933;-78
2022/12/22 14:11:40;;;;;;;;;;;;;;;;;;5035191;28;19999;-77
2022/12/22 14:14:06;;;;;;;;;;;;;;;;;;5037084;28;19936;-78
2022/12/22 14:16:32;;;;;;;;;;;;;;;;;;5026321;28;19970;-77
2022/12/22 14:18:58;;;;;;;;;;;;;;;;;;5036115;28;19931;-77
2022/12/22 14:21:24;;;;;;;;;;;;;;;;;;5033494;28;19925;-78
2022/12/22 14:23:50;;;;;;;;;;;;;;;;;;5034574;28;19929;-77
2022/12/22 14:26:16;;;;;;;;;;;;;;;;;;5035249;28;19932;-77
2022/12/22 14:28:46;;;;;;;;;;;;;;;;;;5026852;28;19979;-78
2022/12/22 14:31:12;;;;;;;;;;;;;;;;;;5034714;28;20035;-77
2022/12/22 14:33:38;;;;;;;;;;;;;;;;;;5035549;28;20019;-78
2022/12/22 14:36:04;;;;;;;;;;;;;;;;;;5039585;28;20302;-78
2022/12/22 14:38:30;;;;;;;;;;;;;;;;;;5043459;28;20749;-78
2022/12/22 14:40:55;;;;;;;;;;;;;;;;;;5044264;28;19972;-79
2022/12/22 14:43:21;;;;;;;;;;;;;;;;;;5036873;28;19930;-78
2022/12/22 14:45:47;;;;;;;;;;;;;;;;;;5037586;28;19944;-78
2022/12/22 14:48:13;;;;;;;;;;;;;;;;;;5041203;28;19932;-78
2022/12/22 14:50:39;;;;;;;;;;;;;;;;;;5045039;28;19955;-79
2022/12/22 14:53:05;;;;;;;;;;;;;;;;;;5033829;28;19981;-78
2022/12/22 14:55:31;;;;;;;;;;;;;;;;;;5026139;28;19940;-79
2022/12/22 14:57:57;;;;;;;;;;;;;;;;;;5023523;28;19930;-78
2022/12/22 15:00:23;;;;;;;;;;;;;;;;;;5042017;28;19925;-78
2022/12/22 15:02:49;;;;;;;;;;;;;;;;;;5035174;28;19925;-78
2022/12/22 15:05:15;;;;;;;;;;;;;;;;;;5039234;28;19925;-78
2022/12/22 15:07:41;;;;;;;;;;;;;;;;;;5039520;28;19921;-78
2022/12/22 15:10:06;;;;;;;;;;;;;;;;;;5040518;28;19933;-78
2022/12/22 15:12:32;;;;;;;;;;;;;;;;;;5042908;28;19932;-79
2022/12/22 15:14:58;;;;;;;;;;;;;;;;;;5040581;28;19932;-78
2022/12/22 15:17:24;;;;;;;;;;;;;;;;;;5033060;28;19933;-78
2022/12/22 15:19:50;;;;;;;;;;;;;;;;;;5030307;28;19929;-78
2022/12/22 15:22:16;;;;;;;;;;;;;;;;;;5031600;28;19933;-78
2022/12/22 15:24:42;;;;;;;;;;;;;;;;;;5033533;28;19925;-78
2022/12/22 15:27:08;;;;;;;;;;;;;;;;;;5030610;28;20386;-77
2022/12/22 15:29:34;;;;;;;;;;;;;;;;;;5028202;28;19937;-78
2022/12/22 15:32:00;;;;;;;;;;;;;;;;;;5030223;28;20007;-77
2022/12/22 15:34:26;;;;;;;;;;;;;;;;;;5028699;28;20393;-77
2022/12/22 15:36:52;;;;;;;;;;;;;;;;;;5032107;28;20012;-77
2022/12/22 15:39:18;;;;;;;;;;;;;;;;;;5033967;28;19932;-77
2022/12/22 15:41:44;;;;;;;;;;;;;;;;;;5030417;28;19925;-77
2022/12/22 15:44:10;;;;;;;;;;;;;;;;;;5032744;28;19951;-78
2022/12/22 15:46:36;;;;;;;;;;;;;;;;;;5031066;28;19929;-78
2022/12/22 15:49:02;;;;;;;;;;;;;;;;;;5029166;28;20303;-78
2022/12/22 15:51:28;;;;;;;;;;;;;;;;;;5028617;28;20399;-78
2022/12/22 15:53:54;;;;;;;;;;;;;;;;;;5027755;28;20151;-78
2022/12/22 15:56:20;;;;;;;;;;;;;;;;;;5033150;28;19929;-78
2022/12/22 15:58:46;;;;;;;;;;;;;;;;;;5033499;28;20276;-78
2022/12/22 16:01:11;;;;;;;;;;;;;;;;;;5031518;28;19932;-78
2022/12/22 16:03:37;;;;;;;;;;;;;;;;;;5029978;28;19961;-77
2022/12/22 16:06:03;;;;;;;;;;;;;;;;;;5031666;28;20351;-77
2022/12/22 16:08:29;;;;;;;;;;;;;;;;;;5028255;28;19933;-77
2022/12/22 16:10:55;;;;;;;;;;;;;;;;;;5030242;28;19925;-77
2022/12/22 16:13:21;;;;;;;;;;;;;;;;;;5030364;28;19994;-77
2022/12/22 16:15:47;;;;;;;;;;;;;;;;;;5032255;28;19929;-78
2022/12/22 16:18:13;;;;;;;;;;;;;;;;;;5033840;28;19929;-78
2022/12/22 16:20:39;;;;;;;;;;;;;;;;;;5016670;28;20040;-78
2022/12/22 16:23:05;;;;;;;;;;;;;;;;;;5033198;28;19929;-77
2022/12/22 16:25:32;;;;;;;;;;;;;;;;;;5032189;28;19929;-77
2022/12/22 16:27:58;;;;;;;;;;;;;;;;;;5027072;28;19971;-78
2022/12/22 16:30:24;;;;;;;;;;;;;;;;;;5024051;28;19929;-78
2022/12/22 16:32:50;;;;;;;;;;;;;;;;;;5039667;28;19929;-77
2022/12/22 16:35:16;;;;;;;;;;;;;;;;;;5039734;28;19925;-78
2022/12/22 16:37:43;;;;;;;;;;;;;;;;;;5039706;28;19925;-78
2022/12/22 16:40:09;;;;;;;;;;;;;;;;;;5039893;28;19932;-78
2022/12/22 16:42:35;;;;;;;;;;;;;;;;;;5037322;28;20409;-77
2022/12/22 16:45:03;;;;;;;;;;;;;;;;;;5038815;28;19964;-77
2022/12/22 16:47:29;;;;;;;;;;;;;;;;;;5036848;28;19940;-77
2022/12/22 16:49:55;;;;;;;;;;;;;;;;;;5039887;28;19925;-77
2022/12/22 16:52:20;;;;;;;;;;;;;;;;;;5039440;28;20338;-77
2022/12/22 16:54:46;;;;;;;;;;;;;;;;;;5038227;28;20019;-77
2022/12/22 16:57:12;;;;;;;;;;;;;;;;;;5027640;28;19925;-77
2022/12/22 16:59:38;;;;;;;;;;;;;;;;;;5038056;28;19976;-77
2022/12/22 17:02:04;;;;;;;;;;;;;;;;;;5038629;28;20024;-77
2022/12/22 17:04:30;;;;;;;;;;;;;;;;;;5037165;28;19935;-77
2022/12/22 17:06:57;;;;;;;;;;;;;;;;;;5040633;28;19925;-77
2022/12/22 17:09:23;;;;;;;;;;;;;;;;;;5037795;28;19976;-77
2022/12/22 17:11:49;;;;;;;;;;;;;;;;;;5039305;28;19925;-77
2022/12/22 17:14:15;;;;;;;;;;;;;;;;;;5038983;28;20330;-76
2022/12/22 17:16:40;;;;;;;;;;;;;;;;;;5037863;28;19929;-77
2022/12/22 17:19:06;;;;;;;;;;;;;;;;;;5037379;28;20482;-77
2022/12/22 17:21:33;;;;;;;;;;;;;;;;;;5035049;28;19957;-76
2022/12/22 17:24:02;;;;;;;;;;;;;;;;;;5026473;28;20084;-76
2022/12/22 17:26:28;;;;;;;;;;;;;;;;;;5039342;28;19924;-77
2022/12/22 17:28:54;;;;;;;;;;;;;;;;;;5038402;28;19929;-76
2022/12/22 17:31:20;;;;;;;;;;;;;;;;;;5032851;28;19933;-77
2022/12/22 17:33:46;;;;;;;;;;;;;;;;;;5037273;28;20323;-76
2022/12/22 17:36:12;;;;;;;;;;;;;;;;;;5024757;28;19933;-77
2022/12/22 17:38:38;;;;;;;;;;;;;;;;;;5037810;28;19921;-77
2022/12/22 17:41:03;;;;;;;;;;;;;;;;;;5038299;28;20299;-77
2022/12/22 17:43:29;;;;;;;;;;;;;;;;;;5035776;28;19932;-77
2022/12/22 17:45:55;;;;;;;;;;;;;;;;;;5035436;28;19933;-78
2022/12/22 17:48:21;;;;;;;;;;;;;;;;;;5032225;28;20308;-77
2022/12/22 17:50:48;;;;;;;;;;;;;;;;;;5035483;28;19925;-76
2022/12/22 17:53:14;;;;;;;;;;;;;;;;;;5032794;28;19932;-77
2022/12/22 17:55:40;;;;;;;;;;;;;;;;;;5035285;28;19925;-77
2022/12/22 17:58:06;;;;;;;;;;;;;;;;;;5040277;28;19925;-77
2022/12/22 18:00:31;;;;;;;;;;;;;;;;;;5047807;28;19928;-76
2022/12/22 18:02:57;;;;;;;;;;;;;;;;;;5034460;28;19929;-77
2022/12/22 18:05:25;;;;;;;;;;;;;;;;;;5039415;28;19934;-76
2022/12/22 18:07:51;;;;;;;;;;;;;;;;;;5038277;28;20383;-78
2022/12/22 18:10:17;;;;;;;;;;;;;;;;;;5016124;28;19968;-77
2022/12/22 18:12:43;;;;;;;;;;;;;;;;;;5028798;28;19925;-77
2022/12/22 18:15:09;;;;;;;;;;;;;;;;;;5031373;28;19932;-77
2022/12/22 18:17:34;;;;;;;;;;;;;;;;;;5033114;28;19925;-77
2022/12/22 18:20:00;;;;;;;;;;;;;;;;;;5031673;28;19929;-78
2022/12/22 18:22:26;;;;;;;;;;;;;;;;;;5033140;28;19926;-77
2022/12/22 18:24:52;;;;;;;;;;;;;;;;;;5033242;28;19925;-77
2022/12/22 18:27:18;;;;;;;;;;;;;;;;;;5034500;28;19983;-78
2022/12/22 18:29:44;;;;;;;;;;;;;;;;;;5023058;28;20294;-78
2022/12/22 18:32:10;;;;;;;;;;;;;;;;;;5033809;28;19929;-77
2022/12/22 18:34:36;;;;;;;;;;;;;;;;;;5034097;28;20029;-77
2022/12/22 18:37:02;;;;;;;;;;;;;;;;;;5030639;28;19948;-77
2022/12/22 18:39:28;;;;;;;;;;;;;;;;;;5032089;28;19969;-77
2022/12/22 18:41:54;;;;;;;;;;;;;;;;;;5033496;28;19979;-77
2022/12/22 18:44:20;;;;;;;;;;;;;;;;;;5032446;28;20019;-77
2022/12/22 18:46:47;;;;;;;;;;;;;;;;;;5032007;28;20032;-78
2022/12/22 18:49:13;;;;;;;;;;;;;;;;;;5032035;28;20375;-77
2022/12/22 18:51:39;;;;;;;;;;;;;;;;;;5030386;28;19937;-77
2022/12/22 18:54:05;;;;;;;;;;;;;;;;;;5027448;28;19948;-76
2022/12/22 18:56:32;;;;;;;;;;;;;;;;;;5032333;28;19937;-77
2022/12/22 18:58:58;;;;;;;;;;;;;;;;;;5034576;28;19925;-77
2022/12/22 19:01:24;;;;;;;;;;;;;;;;;;5030416;28;19947;-77
2022/12/22 19:03:50;;;;;;;;;;;;;;;;;;5028152;28;22135;-77
2022/12/22 19:06:16;;;;;;;;;;;;;;;;;;5025365;28;19925;-77
2022/12/22 19:08:42;;;;;;;;;;;;;;;;;;5029881;28;19933;-77
2022/12/22 19:11:08;;;;;;;;;;;;;;;;;;5031478;28;20260;-77
2022/12/22 19:13:34;;;;;;;;;;;;;;;;;;5032461;28;19932;-77
2022/12/22 19:15:59;;;;;;;;;;;;;;;;;;5035775;28;19979;-77
2022/12/22 19:18:25;;;;;;;;;;;;;;;;;;5030271;28;20067;-76
2022/12/22 19:20:51;;;;;;;;;;;;;;;;;;5033470;28;19987;-77
2022/12/22 19:23:17;;;;;;;;;;;;;;;;;;5022765;28;19925;-77
2022/12/22 19:25:43;;;;;;;;;;;;;;;;;;5033083;28;19932;-78
2022/12/22 19:28:09;;;;;;;;;;;;;;;;;;5032876;28;19952;-79
2022/12/22 19:30:35;;;;;;;;;;;;;;;;;;5033595;28;19937;-79
2022/12/22 19:33:01;;;;;;;;;;;;;;;;;;5031930;28;19925;-79
2022/12/22 19:35:27;;;;;;;;;;;;;;;;;;5032058;28;19931;-79
2022/12/22 19:37:53;;;;;;;;;;;;;;;;;;5027715;28;20012;-79
2022/12/22 19:40:19;;;;;;;;;;;;;;;;;;5033187;28;20385;-78
2022/12/22 19:42:45;;;;;;;;;;;;;;;;;;5033096;28;20417;-78
2022/12/22 19:45:11;;;;;;;;;;;;;;;;;;5031917;28;19936;-78
2022/12/22 19:47:36;;;;;;;;;;;;;;;;;;5033344;28;20414;-78
2022/12/22 19:50:02;;;;;;;;;;;;;;;;;;5032346;28;19925;-78
2022/12/22 19:52:28;;;;;;;;;;;;;;;;;;5029824;28;19933;-78
2022/12/22 19:54:54;;;;;;;;;;;;;;;;;;5024309;28;19925;-78
2022/12/22 19:57:20;;;;;;;;;;;;;;;;;;5027440;28;19925;-78
2022/12/22 19:59:46;;;;;;;;;;;;;;;;;;5026147;28;19933;-78
2022/12/22 20:02:12;;;;;;;;;;;;;;;;;;5027768;28;19925;-78
2022/12/22 20:04:38;;;;;;;;;;;;;;;;;;5032302;28;19925;-78
2022/12/22 20:07:04;;;;;;;;;;;;;;;;;;5030133;28;19925;-79
2022/12/22 20:09:30;;;;;;;;;;;;;;;;;;5030652;28;20012;-79
2022/12/22 20:11:56;;;;;;;;;;;;;;;;;;5039926;28;19917;-79
2022/12/22 20:14:22;;;;;;;;;;;;;;;;;;5053883;28;19929;-79
2022/12/22 20:16:48;;;;;;;;;;;;;;;;;;5050834;28;19944;-78
2022/12/22 20:19:13;;;;;;;;;;;;;;;;;;5056890;28;19925;-78
2022/12/22 20:21:39;;;;;;;;;;;;;;;;;;5051191;28;19948;-78